Mont Belvieu, Texas
Current Conditions -  °F | °C
As of 2:50 PM on Wednesday 26 Nov 2014 (Local Time) from KEFD Reporting Station
Clear Clear  
Wind Chill: 72°   Ceiling: Unl
Heat Index: 72°   Visibility: 10mi
Dew Point: 41°   Wind: 14mph
Humidity: 33%   Direction: 230°SW
Pressure: 30.19"   Gusts: NA
Location:  29.85°N, 94.89°W
Report Text: KEFD 262050Z 23012KT 10SM CLR 22/05 A3019
Loading
Personal Weather Stations






























Interactive Weather Map New forecast layout! Learn more

10-Day Weather Forecast

Advertisements
Track Severe Weather on mobile